sensor_id;sensor_type;location;lat;lon;timestamp;temperature;humidity
6178;DHT22;3122;48.208;11.174;2024-02-26T00:02:29;2.70;1.00
6178;DHT22;3122;48.208;11.174;2024-02-26T00:07:30;2.60;1.00
6178;DHT22;3122;48.208;11.174;2024-02-26T00:12:30;2.60;1.00
6178;DHT22;3122;48.208;11.174;2024-02-26T00:17:31;2.60;1.00
6178;DHT22;3122;48.208;11.174;2024-02-26T00:22:32;2.60;1.00
6178;DHT22;3122;48.208;11.174;2024-02-26T00:27:32;2.50;1.00
6178;DHT22;3122;48.208;11.174;2024-02-26T00:32:33;2.50;1.00
6178;DHT22;3122;48.208;11.174;2024-02-26T00:37:33;2.40;1.00
6178;DHT22;3122;48.208;11.174;2024-02-26T00:42:34;2.30;1.00
6178;DHT22;3122;48.208;11.174;2024-02-26T00:47:34;2.10;1.00
6178;DHT22;3122;48.208;11.174;2024-02-26T00:52:35;2.00;1.00
6178;DHT22;3122;48.208;11.174;2024-02-26T00:57:36;2.00;1.00
6178;DHT22;3122;48.208;11.174;2024-02-26T01:02:36;2.00;1.00
6178;DHT22;3122;48.208;11.174;2024-02-26T01:07:38;2.10;1.00
6178;DHT22;3122;48.208;11.174;2024-02-26T01:12:40;2.00;1.00
6178;DHT22;3122;48.208;11.174;2024-02-26T01:17:40;2.10;1.00
6178;DHT22;3122;48.208;11.174;2024-02-26T01:22:42;2.10;1.00
6178;DHT22;3122;48.208;11.174;2024-02-26T01:27:43;2.10;1.00
6178;DHT22;3122;48.208;11.174;2024-02-26T01:32:44;2.00;1.00
6178;DHT22;3122;48.208;11.174;2024-02-26T01:37:45;2.00;1.00
6178;DHT22;3122;48.208;11.174;2024-02-26T01:42:45;2.00;1.00
6178;DHT22;3122;48.208;11.174;2024-02-26T01:47:46;1.90;1.00
6178;DHT22;3122;48.208;11.174;2024-02-26T01:52:47;1.70;1.00
6178;DHT22;3122;48.208;11.174;2024-02-26T01:57:50;1.60;1.00
6178;DHT22;3122;48.208;11.174;2024-02-26T02:02:52;1.70;1.00
6178;DHT22;3122;48.208;11.174;2024-02-26T02:07:55;1.70;1.00
6178;DHT22;3122;48.208;11.174;2024-02-26T02:12:56;1.60;1.00
6178;DHT22;3122;48.208;11.174;2024-02-26T02:17:56;1.70;1.00
6178;DHT22;3122;48.208;11.174;2024-02-26T02:22:57;1.70;1.00
6178;DHT22;3122;48.208;11.174;2024-02-26T02:27:57;1.70;1.00
6178;DHT22;3122;48.208;11.174;2024-02-26T02:32:58;1.70;1.00
6178;DHT22;3122;48.208;11.174;2024-02-26T02:37:59;1.80;1.00
6178;DHT22;3122;48.208;11.174;2024-02-26T02:42:59;1.70;1.00
6178;DHT22;3122;48.208;11.174;2024-02-26T02:48:02;1.70;1.00
6178;DHT22;3122;48.208;11.174;2024-02-26T02:53:03;1.60;1.00
6178;DHT22;3122;48.208;11.174;2024-02-26T02:58:03;1.70;1.00
6178;DHT22;3122;48.208;11.174;2024-02-26T03:03:04;1.60;1.00
6178;DHT22;3122;48.208;11.174;2024-02-26T03:08:05;1.70;1.00
6178;DHT22;3122;48.208;11.174;2024-02-26T03:13:05;1.80;1.00
6178;DHT22;3122;48.208;11.174;2024-02-26T03:18:07;1.70;1.00
6178;DHT22;3122;48.208;11.174;2024-02-26T03:23:08;1.70;1.00
6178;DHT22;3122;48.208;11.174;2024-02-26T03:28:12;1.60;1.00
6178;DHT22;3122;48.208;11.174;2024-02-26T03:33:13;1.50;1.00
6178;DHT22;3122;48.208;11.174;2024-02-26T03:38:13;1.50;1.00
6178;DHT22;3122;48.208;11.174;2024-02-26T03:43:14;1.50;1.00
6178;DHT22;3122;48.208;11.174;2024-02-26T03:48:14;1.50;1.00
6178;DHT22;3122;48.208;11.174;2024-02-26T03:53:15;1.50;1.00
6178;DHT22;3122;48.208;11.174;2024-02-26T03:58:16;1.50;1.00
6178;DHT22;3122;48.208;11.174;2024-02-26T04:03:16;1.40;1.00
6178;DHT22;3122;48.208;11.174;2024-02-26T04:08:17;1.40;1.00
6178;DHT22;3122;48.208;11.174;2024-02-26T04:13:18;1.40;1.00
6178;DHT22;3122;48.208;11.174;2024-02-26T04:18:18;1.40;1.00
6178;DHT22;3122;48.208;11.174;2024-02-26T04:23:19;1.40;1.00
6178;DHT22;3122;48.208;11.174;2024-02-26T04:28:19;1.40;1.00
6178;DHT22;3122;48.208;11.174;2024-02-26T04:33:26;1.40;1.00
6178;DHT22;3122;48.208;11.174;2024-02-26T04:38:27;1.50;1.00
6178;DHT22;3122;48.208;11.174;2024-02-26T04:43:27;1.50;1.00
6178;DHT22;3122;48.208;11.174;2024-02-26T04:48:28;1.50;1.00
6178;DHT22;3122;48.208;11.174;2024-02-26T04:53:28;1.50;1.00
6178;DHT22;3122;48.208;11.174;2024-02-26T04:58:29;1.50;1.00
6178;DHT22;3122;48.208;11.174;2024-02-26T05:03:30;1.50;1.00
6178;DHT22;3122;48.208;11.174;2024-02-26T05:08:30;1.40;1.00
6178;DHT22;3122;48.208;11.174;2024-02-26T05:13:31;1.30;1.00
6178;DHT22;3122;48.208;11.174;2024-02-26T05:18:32;1.30;1.00
6178;DHT22;3122;48.208;11.174;2024-02-26T05:23:32;1.40;1.00
6178;DHT22;3122;48.208;11.174;2024-02-26T05:28:33;1.50;1.00
6178;DHT22;3122;48.208;11.174;2024-02-26T05:33:33;1.50;1.00
6178;DHT22;3122;48.208;11.174;2024-02-26T05:38:34;1.50;1.00
6178;DHT22;3122;48.208;11.174;2024-02-26T05:43:34;1.50;1.00
6178;DHT22;3122;48.208;11.174;2024-02-26T05:48:35;1.40;1.00
6178;DHT22;3122;48.208;11.174;2024-02-26T05:53:35;1.40;1.00
6178;DHT22;3122;48.208;11.174;2024-02-26T05:58:36;1.50;1.00
6178;DHT22;3122;48.208;11.174;2024-02-26T06:03:36;1.50;1.00
6178;DHT22;3122;48.208;11.174;2024-02-26T06:08:37;1.60;1.00
6178;DHT22;3122;48.208;11.174;2024-02-26T06:13:38;1.60;1.00
6178;DHT22;3122;48.208;11.174;2024-02-26T06:18:38;1.60;1.00
6178;DHT22;3122;48.208;11.174;2024-02-26T06:23:39;1.70;1.00
6178;DHT22;3122;48.208;11.174;2024-02-26T06:28:40;1.80;1.00
6178;DHT22;3122;48.208;11.174;2024-02-26T06:33:41;1.90;1.00
6178;DHT22;3122;48.208;11.174;2024-02-26T06:38:41;1.90;1.00
6178;DHT22;3122;48.208;11.174;2024-02-26T06:43:42;2.00;1.00
6178;DHT22;3122;48.208;11.174;2024-02-26T06:48:42;1.90;1.00
6178;DHT22;3122;48.208;11.174;2024-02-26T06:53:43;2.00;1.00
6178;DHT22;3122;48.208;11.174;2024-02-26T06:58:44;2.00;1.00
6178;DHT22;3122;48.208;11.174;2024-02-26T07:03:44;2.00;1.00
6178;DHT22;3122;48.208;11.174;2024-02-26T07:08:45;2.10;1.00
6178;DHT22;3122;48.208;11.174;2024-02-26T07:13:46;2.20;1.00
6178;DHT22;3122;48.208;11.174;2024-02-26T07:18:46;2.30;1.00
6178;DHT22;3122;48.208;11.174;2024-02-26T07:23:47;2.30;1.00
6178;DHT22;3122;48.208;11.174;2024-02-26T07:28:47;2.30;1.00
6178;DHT22;3122;48.208;11.174;2024-02-26T07:33:48;2.40;1.00
6178;DHT22;3122;48.208;11.174;2024-02-26T07:38:48;2.50;1.00
6178;DHT22;3122;48.208;11.174;2024-02-26T07:43:49;2.50;1.00
6178;DHT22;3122;48.208;11.174;2024-02-26T07:48:49;2.60;1.00
6178;DHT22;3122;48.208;11.174;2024-02-26T07:53:50;2.60;1.00
6178;DHT22;3122;48.208;11.174;2024-02-26T07:58:53;2.60;1.00
6178;DHT22;3122;48.208;11.174;2024-02-26T08:03:54;2.60;1.00
6178;DHT22;3122;48.208;11.174;2024-02-26T08:08:54;2.70;1.00
6178;DHT22;3122;48.208;11.174;2024-02-26T08:13:55;2.70;1.00
6178;DHT22;3122;48.208;11.174;2024-02-26T08:18:55;2.80;1.00
6178;DHT22;3122;48.208;11.174;2024-02-26T08:23:56;2.90;1.00
6178;DHT22;3122;48.208;11.174;2024-02-26T08:28:56;2.90;1.00
6178;DHT22;3122;48.208;11.174;2024-02-26T08:33:58;3.00;1.00
6178;DHT22;3122;48.208;11.174;2024-02-26T08:38:59;3.10;1.00
6178;DHT22;3122;48.208;11.174;2024-02-26T08:44:00;3.00;1.00
6178;DHT22;3122;48.208;11.174;2024-02-26T08:49:01;3.20;1.00
6178;DHT22;3122;48.208;11.174;2024-02-26T08:54:01;3.40;1.00
6178;DHT22;3122;48.208;11.174;2024-02-26T08:59:02;3.50;1.00
6178;DHT22;3122;48.208;11.174;2024-02-26T09:04:04;3.60;1.00
6178;DHT22;3122;48.208;11.174;2024-02-26T09:09:04;3.70;1.00
6178;DHT22;3122;48.208;11.174;2024-02-26T09:14:05;3.80;1.00
6178;DHT22;3122;48.208;11.174;2024-02-26T09:19:06;3.90;1.00
6178;DHT22;3122;48.208;11.174;2024-02-26T09:24:06;4.20;1.00
6178;DHT22;3122;48.208;11.174;2024-02-26T09:29:07;4.40;1.00
6178;DHT22;3122;48.208;11.174;2024-02-26T09:34:08;4.70;1.00
6178;DHT22;3122;48.208;11.174;2024-02-26T09:39:09;4.90;1.00
6178;DHT22;3122;48.208;11.174;2024-02-26T09:44:14;5.10;1.00
6178;DHT22;3122;48.208;11.174;2024-02-26T09:49:16;5.20;1.00
6178;DHT22;3122;48.208;11.174;2024-02-26T09:54:17;5.60;1.00
6178;DHT22;3122;48.208;11.174;2024-02-26T09:59:18;5.70;1.00
6178;DHT22;3122;48.208;11.174;2024-02-26T10:04:19;5.90;1.00
6178;DHT22;3122;48.208;11.174;2024-02-26T10:09:20;5.90;1.00
6178;DHT22;3122;48.208;11.174;2024-02-26T10:14:21;6.00;1.00
6178;DHT22;3122;48.208;11.174;2024-02-26T10:19:29;6.00;1.00
6178;DHT22;3122;48.208;11.174;2024-02-26T10:24:31;6.10;1.00
6178;DHT22;3122;48.208;11.174;2024-02-26T10:29:31;6.20;1.00
6178;DHT22;3122;48.208;11.174;2024-02-26T10:34:32;6.50;1.00
6178;DHT22;3122;48.208;11.174;2024-02-26T10:39:36;6.60;1.00
6178;DHT22;3122;48.208;11.174;2024-02-26T10:44:40;6.80;1.00
6178;DHT22;3122;48.208;11.174;2024-02-26T10:49:46;7.00;1.00
6178;DHT22;3122;48.208;11.174;2024-02-26T10:54:48;7.20;1.00
6178;DHT22;3122;48.208;11.174;2024-02-26T10:59:50;7.30;1.00
6178;DHT22;3122;48.208;11.174;2024-02-26T11:04:51;7.40;1.00
6178;DHT22;3122;48.208;11.174;2024-02-26T11:09:53;7.50;1.00
6178;DHT22;3122;48.208;11.174;2024-02-26T11:14:55;7.80;1.00
6178;DHT22;3122;48.208;11.174;2024-02-26T11:19:59;7.90;1.00
6178;DHT22;3122;48.208;11.174;2024-02-26T11:25:00;8.00;1.00
6178;DHT22;3122;48.208;11.174;2024-02-26T11:30:02;8.10;1.00
6178;DHT22;3122;48.208;11.174;2024-02-26T11:35:05;8.00;1.00
6178;DHT22;3122;48.208;11.174;2024-02-26T11:40:14;8.00;1.00
6178;DHT22;3122;48.208;11.174;2024-02-26T11:50:42;8.40;1.00
6178;DHT22;3122;48.208;11.174;2024-02-26T11:55:42;8.60;1.00
6178;DHT22;3122;48.208;11.174;2024-02-26T12:00:43;8.80;1.00
6178;DHT22;3122;48.208;11.174;2024-02-26T12:05:44;8.70;1.00
6178;DHT22;3122;48.208;11.174;2024-02-26T12:10:44;8.70;1.00
6178;DHT22;3122;48.208;11.174;2024-02-26T12:15:56;8.80;1.00
6178;DHT22;3122;48.208;11.174;2024-02-26T12:21:01;8.70;1.00
6178;DHT22;3122;48.208;11.174;2024-02-26T12:26:02;8.90;1.00
6178;DHT22;3122;48.208;11.174;2024-02-26T12:31:04;9.10;1.00
6178;DHT22;3122;48.208;11.174;2024-02-26T12:36:05;9.20;1.00
6178;DHT22;3122;48.208;11.174;2024-02-26T12:41:06;9.50;1.00
6178;DHT22;3122;48.208;11.174;2024-02-26T12:46:07;9.40;1.00
6178;DHT22;3122;48.208;11.174;2024-02-26T12:51:07;9.40;1.00
6178;DHT22;3122;48.208;11.174;2024-02-26T12:56:11;9.60;1.00
6178;DHT22;3122;48.208;11.174;2024-02-26T13:01:17;9.80;1.00
6178;DHT22;3122;48.208;11.174;2024-02-26T13:06:19;10.00;1.00
6178;DHT22;3122;48.208;11.174;2024-02-26T13:11:20;10.00;1.00
6178;DHT22;3122;48.208;11.174;2024-02-26T13:16:24;10.10;1.00
6178;DHT22;3122;48.208;11.174;2024-02-26T13:21:24;10.20;1.00
6178;DHT22;3122;48.208;11.174;2024-02-26T13:26:26;10.10;1.00
6178;DHT22;3122;48.208;11.174;2024-02-26T13:31:27;10.20;1.00
6178;DHT22;3122;48.208;11.174;2024-02-26T13:36:27;10.10;1.00
6178;DHT22;3122;48.208;11.174;2024-02-26T13:41:28;10.00;1.00
6178;DHT22;3122;48.208;11.174;2024-02-26T13:46:28;9.90;1.00
6178;DHT22;3122;48.208;11.174;2024-02-26T13:51:29;10.00;1.00
6178;DHT22;3122;48.208;11.174;2024-02-26T13:56:35;10.00;1.00
6178;DHT22;3122;48.208;11.174;2024-02-26T14:01:36;10.00;1.00
6178;DHT22;3122;48.208;11.174;2024-02-26T14:06:37;9.90;1.00
6178;DHT22;3122;48.208;11.174;2024-02-26T14:11:37;9.80;1.00
6178;DHT22;3122;48.208;11.174;2024-02-26T14:16:40;9.80;1.00
6178;DHT22;3122;48.208;11.174;2024-02-26T14:21:40;9.70;1.00
6178;DHT22;3122;48.208;11.174;2024-02-26T14:26:41;9.60;1.00
6178;DHT22;3122;48.208;11.174;2024-02-26T14:31:42;9.50;1.00
6178;DHT22;3122;48.208;11.174;2024-02-26T14:36:43;9.40;1.00
6178;DHT22;3122;48.208;11.174;2024-02-26T14:41:43;9.30;1.00
6178;DHT22;3122;48.208;11.174;2024-02-26T14:46:44;9.20;1.00
6178;DHT22;3122;48.208;11.174;2024-02-26T14:51:45;9.10;1.00
6178;DHT22;3122;48.208;11.174;2024-02-26T14:56:45;9.00;1.00
6178;DHT22;3122;48.208;11.174;2024-02-26T15:01:46;8.90;1.00
6178;DHT22;3122;48.208;11.174;2024-02-26T15:06:46;8.90;1.00
6178;DHT22;3122;48.208;11.174;2024-02-26T15:11:47;8.80;1.00
6178;DHT22;3122;48.208;11.174;2024-02-26T15:16:48;8.80;1.00
6178;DHT22;3122;48.208;11.174;2024-02-26T15:21:49;8.80;1.00
6178;DHT22;3122;48.208;11.174;2024-02-26T15:26:49;8.70;1.00
6178;DHT22;3122;48.208;11.174;2024-02-26T15:31:50;8.70;1.00
6178;DHT22;3122;48.208;11.174;2024-02-26T15:36:51;8.60;1.00
6178;DHT22;3122;48.208;11.174;2024-02-26T15:41:52;8.60;1.00
6178;DHT22;3122;48.208;11.174;2024-02-26T15:46:53;8.50;1.00
6178;DHT22;3122;48.208;11.174;2024-02-26T15:51:54;8.50;1.00
6178;DHT22;3122;48.208;11.174;2024-02-26T15:56:54;8.40;1.00
6178;DHT22;3122;48.208;11.174;2024-02-26T16:01:55;8.30;1.00
6178;DHT22;3122;48.208;11.174;2024-02-26T16:06:58;8.30;1.00
6178;DHT22;3122;48.208;11.174;2024-02-26T16:12:08;8.30;1.00
6178;DHT22;3122;48.208;11.174;2024-02-26T16:17:17;8.20;1.00
6178;DHT22;3122;48.208;11.174;2024-02-26T16:22:19;8.10;1.00
6178;DHT22;3122;48.208;11.174;2024-02-26T16:27:20;8.10;1.00
6178;DHT22;3122;48.208;11.174;2024-02-26T16:32:21;8.00;1.00
6178;DHT22;3122;48.208;11.174;2024-02-26T16:37:22;8.00;1.00
6178;DHT22;3122;48.208;11.174;2024-02-26T16:42:23;7.90;1.00
6178;DHT22;3122;48.208;11.174;2024-02-26T16:47:23;7.90;1.00
6178;DHT22;3122;48.208;11.174;2024-02-26T16:52:25;7.80;1.00
6178;DHT22;3122;48.208;11.174;2024-02-26T16:57:26;7.80;1.00
6178;DHT22;3122;48.208;11.174;2024-02-26T17:02:26;7.70;1.00
6178;DHT22;3122;48.208;11.174;2024-02-26T17:07:27;7.70;1.00
6178;DHT22;3122;48.208;11.174;2024-02-26T17:12:27;7.70;1.00
6178;DHT22;3122;48.208;11.174;2024-02-26T17:17:28;7.70;1.00
6178;DHT22;3122;48.208;11.174;2024-02-26T17:22:28;7.70;1.00
6178;DHT22;3122;48.208;11.174;2024-02-26T17:27:29;7.70;1.00
6178;DHT22;3122;48.208;11.174;2024-02-26T17:32:30;7.70;1.00
6178;DHT22;3122;48.208;11.174;2024-02-26T17:37:31;7.70;1.00
6178;DHT22;3122;48.208;11.174;2024-02-26T17:42:31;7.80;1.00
6178;DHT22;3122;48.208;11.174;2024-02-26T17:47:32;7.70;1.00
6178;DHT22;3122;48.208;11.174;2024-02-26T17:52:32;7.70;1.00
6178;DHT22;3122;48.208;11.174;2024-02-26T17:57:36;7.50;1.00
6178;DHT22;3122;48.208;11.174;2024-02-26T18:02:37;7.40;1.00
6178;DHT22;3122;48.208;11.174;2024-02-26T18:07:38;7.40;1.00
6178;DHT22;3122;48.208;11.174;2024-02-26T18:12:39;7.40;1.00
6178;DHT22;3122;48.208;11.174;2024-02-26T18:17:40;7.30;1.00
6178;DHT22;3122;48.208;11.174;2024-02-26T18:22:41;7.30;1.00
6178;DHT22;3122;48.208;11.174;2024-02-26T18:27:42;7.30;1.00
6178;DHT22;3122;48.208;11.174;2024-02-26T18:32:42;7.20;1.00
6178;DHT22;3122;48.208;11.174;2024-02-26T18:37:43;7.20;1.00
6178;DHT22;3122;48.208;11.174;2024-02-26T18:42:44;7.10;1.00
6178;DHT22;3122;48.208;11.174;2024-02-26T18:47:45;7.10;1.00
6178;DHT22;3122;48.208;11.174;2024-02-26T18:52:46;7.00;1.00
6178;DHT22;3122;48.208;11.174;2024-02-26T18:57:48;7.00;1.00
6178;DHT22;3122;48.208;11.174;2024-02-26T19:02:48;7.00;1.00
6178;DHT22;3122;48.208;11.174;2024-02-26T19:07:49;7.00;1.00
6178;DHT22;3122;48.208;11.174;2024-02-26T19:12:54;6.80;1.00
6178;DHT22;3122;48.208;11.174;2024-02-26T19:17:54;6.70;1.00
6178;DHT22;3122;48.208;11.174;2024-02-26T19:22:56;6.60;1.00
6178;DHT22;3122;48.208;11.174;2024-02-26T19:27:57;6.60;1.00
6178;DHT22;3122;48.208;11.174;2024-02-26T19:32:57;6.60;1.00
6178;DHT22;3122;48.208;11.174;2024-02-26T19:37:58;6.50;1.00
6178;DHT22;3122;48.208;11.174;2024-02-26T19:42:58;6.40;1.00
6178;DHT22;3122;48.208;11.174;2024-02-26T19:47:59;6.30;1.00
6178;DHT22;3122;48.208;11.174;2024-02-26T19:52:59;6.30;1.00
6178;DHT22;3122;48.208;11.174;2024-02-26T19:58:00;6.30;1.00
6178;DHT22;3122;48.208;11.174;2024-02-26T20:03:03;6.30;1.00
6178;DHT22;3122;48.208;11.174;2024-02-26T20:08:06;6.30;1.00
6178;DHT22;3122;48.208;11.174;2024-02-26T20:13:06;6.30;1.00
6178;DHT22;3122;48.208;11.174;2024-02-26T20:18:07;6.10;1.00
6178;DHT22;3122;48.208;11.174;2024-02-26T20:23:08;6.00;1.00
6178;DHT22;3122;48.208;11.174;2024-02-26T20:28:08;6.00;1.00
6178;DHT22;3122;48.208;11.174;2024-02-26T20:33:09;5.80;1.00
6178;DHT22;3122;48.208;11.174;2024-02-26T20:38:10;5.80;1.00
6178;DHT22;3122;48.208;11.174;2024-02-26T20:43:10;5.70;1.00
6178;DHT22;3122;48.208;11.174;2024-02-26T20:48:11;5.70;1.00
6178;DHT22;3122;48.208;11.174;2024-02-26T20:53:12;5.60;1.00
6178;DHT22;3122;48.208;11.174;2024-02-26T20:58:12;5.60;1.00
6178;DHT22;3122;48.208;11.174;2024-02-26T21:03:13;5.60;1.00
6178;DHT22;3122;48.208;11.174;2024-02-26T21:08:14;5.60;1.00
6178;DHT22;3122;48.208;11.174;2024-02-26T21:13:14;5.60;1.00
6178;DHT22;3122;48.208;11.174;2024-02-26T21:18:15;5.60;1.00
6178;DHT22;3122;48.208;11.174;2024-02-26T21:23:16;5.50;1.00
6178;DHT22;3122;48.208;11.174;2024-02-26T21:28:17;5.50;1.00
6178;DHT22;3122;48.208;11.174;2024-02-26T21:33:18;5.40;1.00
6178;DHT22;3122;48.208;11.174;2024-02-26T21:38:19;5.30;1.00
6178;DHT22;3122;48.208;11.174;2024-02-26T21:43:20;5.20;1.00
6178;DHT22;3122;48.208;11.174;2024-02-26T21:48:20;5.10;1.00
6178;DHT22;3122;48.208;11.174;2024-02-26T21:53:21;5.10;1.00
6178;DHT22;3122;48.208;11.174;2024-02-26T21:58:22;5.10;1.00
6178;DHT22;3122;48.208;11.174;2024-02-26T22:03:23;5.10;1.00
6178;DHT22;3122;48.208;11.174;2024-02-26T22:08:23;5.10;1.00
6178;DHT22;3122;48.208;11.174;2024-02-26T22:13:24;5.00;1.00
6178;DHT22;3122;48.208;11.174;2024-02-26T22:18:24;5.10;1.00
6178;DHT22;3122;48.208;11.174;2024-02-26T22:23:25;5.10;1.00
6178;DHT22;3122;48.208;11.174;2024-02-26T22:28:25;5.10;1.00
6178;DHT22;3122;48.208;11.174;2024-02-26T22:33:26;5.10;1.00
6178;DHT22;3122;48.208;11.174;2024-02-26T22:38:26;5.10;1.00
6178;DHT22;3122;48.208;11.174;2024-02-26T22:43:27;5.10;1.00
6178;DHT22;3122;48.208;11.174;2024-02-26T22:48:27;5.00;1.00
6178;DHT22;3122;48.208;11.174;2024-02-26T22:53:28;4.90;1.00
6178;DHT22;3122;48.208;11.174;2024-02-26T22:58:28;4.80;1.00
6178;DHT22;3122;48.208;11.174;2024-02-26T23:03:29;4.70;1.00
6178;DHT22;3122;48.208;11.174;2024-02-26T23:08:30;4.60;1.00
6178;DHT22;3122;48.208;11.174;2024-02-26T23:13:30;4.60;1.00
6178;DHT22;3122;48.208;11.174;2024-02-26T23:18:31;4.60;1.00
6178;DHT22;3122;48.208;11.174;2024-02-26T23:23:31;4.70;1.00
6178;DHT22;3122;48.208;11.174;2024-02-26T23:28:32;4.60;1.00
6178;DHT22;3122;48.208;11.174;2024-02-26T23:33:32;4.70;1.00
6178;DHT22;3122;48.208;11.174;2024-02-26T23:38:33;4.80;1.00
6178;DHT22;3122;48.208;11.174;2024-02-26T23:43:34;4.70;1.00
6178;DHT22;3122;48.208;11.174;2024-02-26T23:48:35;4.80;1.00
6178;DHT22;3122;48.208;11.174;2024-02-26T23:53:36;4.80;1.00
6178;DHT22;3122;48.208;11.174;2024-02-26T23:58:36;4.80;1.00
